createdAt,value
2022-08-24T00:00:30.492Z,31.81
2022-08-24T00:02:59.694Z,31.83
2022-08-24T00:05:29.108Z,32.06
2022-08-24T00:07:58.832Z,31.60
2022-08-24T00:10:28.262Z,31.91
2022-08-24T00:12:59.005Z,31.52
2022-08-24T00:15:29.994Z,31.43
2022-08-24T00:17:59.398Z,31.41
2022-08-24T00:20:29.406Z,31.50
2022-08-24T00:22:59.437Z,31.78
2022-08-24T00:25:29.577Z,31.96
2022-08-24T00:27:59.880Z,31.23
2022-08-24T00:30:30.409Z,31.36
2022-08-24T00:33:00.572Z,31.22
2022-08-24T00:35:32.176Z,31.83
2022-08-24T00:38:01.243Z,31.13
2022-08-24T00:40:34.865Z,31.00
2022-08-24T00:43:06.056Z,30.81
2022-08-24T00:45:42.202Z,31.04
2022-08-24T00:48:17.175Z,31.53
2022-08-24T00:50:50.880Z,30.95
2022-08-24T00:53:27.152Z,30.88
2022-08-24T00:55:59.935Z,31.04
2022-08-24T00:58:35.036Z,30.89
2022-08-24T01:01:08.024Z,31.22
2022-08-24T01:03:39.027Z,30.87
2022-08-24T01:06:08.554Z,31.29
2022-08-24T01:08:37.769Z,31.24
2022-08-24T01:11:13.246Z,31.19
2022-08-24T01:13:44.675Z,30.96
2022-08-24T01:16:37.963Z,31.07
2022-08-24T01:19:11.784Z,31.25
2022-08-24T01:21:48.404Z,30.85
2022-08-24T01:24:19.269Z,31.11
2022-08-24T01:26:52.053Z,31.48
2022-08-24T01:29:27.236Z,31.48
2022-08-24T01:31:57.964Z,31.32
2022-08-24T01:34:28.499Z,31.51
2022-08-24T01:37:00.403Z,31.55
2022-08-24T01:39:33.982Z,31.36
2022-08-24T01:42:03.587Z,31.50
2022-08-24T01:44:36.086Z,31.42
2022-08-24T01:47:07.905Z,31.48
2022-08-24T01:49:40.203Z,31.61
2022-08-24T01:52:12.914Z,31.51
2022-08-24T01:54:44.340Z,31.50
2022-08-24T01:57:16.127Z,30.76
2022-08-24T01:59:46.390Z,31.45
2022-08-24T02:02:19.875Z,31.52
2022-08-24T02:04:49.614Z,31.86
2022-08-24T02:07:20.090Z,31.65
2022-08-24T02:09:50.803Z,31.67
2022-08-24T02:12:21.122Z,31.59
2022-08-24T02:15:11.717Z,31.73
2022-08-24T02:17:41.000Z,31.62
2022-08-24T02:20:11.363Z,31.58
2022-08-24T02:22:40.395Z,31.77
2022-08-24T02:25:14.177Z,31.55
2022-08-24T02:27:44.076Z,32.14
2022-08-24T02:30:15.169Z,32.39
2022-08-24T02:32:44.801Z,32.38
2022-08-24T02:35:14.503Z,32.50
2022-08-24T02:37:45.106Z,32.71
2022-08-24T02:40:17.823Z,32.90
2022-08-24T02:42:48.318Z,32.41
2022-08-24T02:45:18.314Z,32.78
2022-08-24T02:47:48.023Z,32.71
2022-08-24T02:50:19.509Z,32.68
2022-08-24T02:52:49.054Z,32.54
2022-08-24T02:55:20.734Z,32.57
2022-08-24T02:57:53.141Z,32.63
2022-08-24T03:00:23.576Z,32.38
2022-08-24T03:02:53.340Z,32.31
2022-08-24T03:05:24.514Z,32.61
2022-08-24T03:07:53.688Z,32.57
2022-08-24T03:10:24.370Z,32.40
2022-08-24T03:12:54.161Z,31.61
2022-08-24T03:15:28.190Z,32.70
2022-08-24T03:17:58.626Z,32.77
2022-08-24T03:20:29.645Z,32.88
2022-08-24T03:22:59.692Z,32.52
2022-08-24T03:25:31.265Z,32.53
2022-08-24T03:28:00.368Z,32.75
2022-08-24T03:30:30.814Z,33.24
2022-08-24T03:33:01.454Z,32.99
2022-08-24T03:35:31.290Z,32.86
2022-08-24T03:38:01.858Z,33.25
2022-08-24T03:40:33.421Z,33.66
2022-08-24T03:43:04.427Z,34.19
2022-08-24T03:45:33.831Z,34.47
2022-08-24T03:48:03.219Z,34.75
2022-08-24T03:50:32.698Z,35.43
2022-08-24T03:53:01.768Z,35.00
2022-08-24T03:55:32.621Z,34.96
2022-08-24T03:58:01.930Z,35.34
2022-08-24T04:00:31.338Z,35.74
2022-08-24T04:03:01.567Z,35.88
2022-08-24T04:05:35.202Z,36.09
2022-08-24T04:08:06.014Z,35.65
2022-08-24T04:10:38.596Z,36.33
2022-08-24T04:13:08.585Z,36.36
2022-08-24T04:15:41.599Z,36.32
2022-08-24T04:18:12.432Z,36.01
2022-08-24T04:20:43.270Z,35.58
2022-08-24T04:23:16.778Z,35.66
2022-08-24T04:25:49.750Z,35.89
2022-08-24T04:28:21.139Z,35.18
2022-08-24T04:30:51.640Z,35.18
2022-08-24T04:33:38.629Z,34.92
2022-08-24T04:36:10.250Z,35.39
2022-08-24T04:38:43.311Z,35.75
2022-08-24T04:41:43.212Z,35.39
2022-08-24T04:44:13.981Z,35.73
2022-08-24T04:46:43.527Z,35.47
2022-08-24T04:49:13.185Z,35.33
2022-08-24T04:51:42.887Z,35.29
2022-08-24T04:54:12.235Z,35.48
2022-08-24T04:56:43.483Z,35.98
2022-08-24T04:59:12.637Z,36.13
2022-08-24T05:01:44.599Z,36.40
2022-08-24T05:04:14.662Z,36.14
2022-08-24T05:06:45.871Z,36.18
2022-08-24T05:09:15.618Z,36.94
2022-08-24T05:11:49.705Z,36.83
2022-08-24T05:14:28.572Z,36.84
2022-08-24T05:16:58.633Z,37.00
2022-08-24T05:19:29.545Z,37.52
2022-08-24T05:21:59.767Z,37.97
2022-08-24T05:24:30.162Z,37.86
2022-08-24T05:27:01.468Z,37.99
2022-08-24T05:29:34.011Z,38.38
2022-08-24T05:32:04.661Z,38.43
2022-08-24T05:34:37.764Z,38.68
2022-08-24T05:37:07.879Z,38.91
2022-08-24T05:39:53.939Z,38.86
2022-08-24T05:42:26.968Z,39.30
2022-08-24T05:44:56.723Z,38.94
2022-08-24T05:47:29.408Z,38.90
2022-08-24T05:50:06.685Z,38.18
2022-08-24T05:52:36.845Z,38.18
2022-08-24T05:55:07.707Z,38.33
2022-08-24T05:57:39.480Z,36.60
2022-08-24T06:00:20.396Z,37.32
2022-08-24T06:02:57.906Z,36.32
2022-08-24T06:05:28.009Z,36.36
2022-08-24T06:07:58.101Z,36.61
2022-08-24T06:10:36.617Z,34.85
2022-08-24T06:13:11.501Z,33.71
2022-08-24T06:15:42.723Z,34.58
2022-08-24T06:18:20.832Z,33.61
2022-08-24T06:20:50.714Z,33.87
2022-08-24T06:23:26.614Z,33.96
2022-08-24T06:26:23.258Z,33.23
2022-08-24T06:28:55.873Z,33.39
2022-08-24T06:31:25.617Z,32.34
2022-08-24T06:33:57.418Z,32.51
2022-08-24T06:36:26.614Z,31.91
2022-08-24T06:38:57.348Z,30.23
2022-08-24T06:41:28.004Z,29.31
2022-08-24T06:43:59.771Z,28.27
2022-08-24T06:46:47.109Z,26.56
2022-08-24T06:49:19.241Z,26.02
2022-08-24T06:51:50.915Z,24.77
2022-08-24T06:54:21.215Z,24.52
2022-08-24T06:56:51.641Z,24.34
2022-08-24T06:59:23.194Z,24.32
2022-08-24T07:01:53.710Z,23.78
2022-08-24T07:04:27.520Z,24.47
2022-08-24T07:07:00.814Z,23.80
2022-08-24T07:09:33.595Z,23.04
2022-08-24T07:12:04.705Z,23.32
2022-08-24T07:14:36.100Z,22.22
2022-08-24T07:17:05.817Z,22.15
2022-08-24T07:19:36.017Z,19.79
2022-08-24T07:22:07.582Z,20.24
2022-08-24T07:24:38.017Z,19.57
2022-08-24T07:27:08.296Z,18.88
2022-08-24T07:29:56.488Z,20.22
2022-08-24T07:33:08.713Z,20.60
2022-08-24T07:35:41.609Z,20.49
2022-08-24T07:38:14.454Z,19.75
2022-08-24T07:41:14.347Z,20.90
2022-08-24T07:43:43.089Z,18.84
2022-08-24T07:46:14.759Z,18.38
2022-08-24T07:48:44.931Z,18.60
2022-08-24T07:51:16.517Z,17.61
2022-08-24T07:53:54.641Z,17.82
2022-08-24T07:56:30.558Z,18.09
2022-08-24T07:59:03.476Z,18.52
2022-08-24T08:01:36.275Z,17.65
2022-08-24T08:04:08.100Z,18.34
2022-08-24T08:06:38.236Z,16.88
2022-08-24T08:09:09.856Z,17.13
2022-08-24T08:11:39.723Z,15.72
2022-08-24T08:14:09.108Z,16.00
2022-08-24T08:16:39.694Z,15.91
2022-08-24T08:19:10.677Z,15.61
2022-08-24T08:22:03.139Z,14.92
2022-08-24T08:24:38.394Z,15.07
2022-08-24T08:27:09.229Z,15.05
2022-08-24T08:29:42.306Z,15.31
2022-08-24T08:32:17.343Z,15.11
2022-08-24T08:34:48.770Z,14.39
2022-08-24T08:37:19.146Z,14.11
2022-08-24T08:39:49.180Z,14.11
2022-08-24T08:42:57.225Z,13.97
2022-08-24T08:45:36.532Z,14.01
2022-08-24T08:48:55.521Z,13.30
2022-08-24T08:51:56.780Z,14.55
2022-08-24T08:54:49.849Z,14.20
2022-08-24T08:57:44.068Z,14.45
2022-08-24T09:00:18.244Z,14.13
2022-08-24T09:03:14.336Z,14.68
2022-08-24T09:06:26.749Z,14.05
2022-08-24T09:09:35.134Z,13.18
2022-08-24T09:12:13.033Z,13.71
2022-08-24T09:15:20.988Z,13.02
2022-08-24T09:18:05.924Z,12.90
2022-08-24T09:21:04.662Z,12.90
2022-08-24T09:23:48.016Z,12.48
2022-08-24T09:26:27.201Z,11.98
2022-08-24T09:29:11.310Z,12.73
2022-08-24T09:31:53.071Z,13.08
2022-08-24T09:34:39.296Z,12.77
2022-08-24T09:37:36.362Z,12.20
2022-08-24T09:40:27.368Z,12.71
2022-08-24T09:43:36.975Z,12.54
2022-08-24T09:46:34.629Z,12.15
2022-08-24T09:49:29.331Z,11.89
2022-08-24T09:52:23.131Z,11.50
2022-08-24T09:55:48.139Z,11.71
2022-08-24T09:58:27.329Z,12.32
2022-08-24T10:01:09.107Z,11.98
2022-08-24T10:03:53.680Z,11.55
2022-08-24T10:06:33.356Z,11.11
2022-08-24T10:09:20.657Z,10.53
2022-08-24T10:12:04.117Z,10.29
2022-08-24T10:14:53.017Z,10.79
2022-08-24T10:17:33.314Z,11.17
2022-08-24T10:20:11.519Z,11.31
2022-08-24T10:23:08.228Z,11.80
2022-08-24T10:25:45.375Z,11.71
2022-08-24T10:28:37.945Z,10.42
2022-08-24T10:31:12.911Z,10.16
2022-08-24T10:34:00.755Z,9.91
2022-08-24T10:36:50.511Z,10.87
2022-08-24T10:39:41.510Z,10.69
2022-08-24T10:43:09.489Z,10.39
2022-08-24T10:49:17.399Z,9.33
2022-08-24T10:52:09.454Z,10.21
2022-08-24T10:54:39.176Z,10.62
2022-08-24T10:57:16.876Z,10.25
2022-08-24T10:59:57.118Z,10.43
2022-08-24T11:02:34.295Z,10.41
2022-08-24T11:05:17.256Z,10.14
2022-08-24T11:07:59.106Z,9.42
2022-08-24T11:10:31.895Z,9.40
2022-08-24T11:13:22.130Z,9.81
2022-08-24T11:15:54.553Z,10.39
2022-08-24T11:18:25.453Z,10.39
2022-08-24T11:21:00.715Z,10.48
2022-08-24T11:23:38.821Z,10.32
2022-08-24T11:26:19.813Z,10.26
2022-08-24T11:28:55.723Z,10.26
2022-08-24T11:31:35.959Z,10.71
2022-08-24T11:34:08.196Z,10.18
2022-08-24T11:36:42.840Z,10.02
2022-08-24T11:39:18.586Z,10.26
2022-08-24T11:41:57.330Z,10.35
2022-08-24T11:44:42.631Z,10.73
2022-08-24T11:47:40.964Z,11.14
2022-08-24T11:50:24.588Z,10.50
2022-08-24T11:53:12.146Z,10.59
2022-08-24T11:55:57.501Z,10.25
2022-08-24T11:58:40.159Z,10.71
2022-08-24T12:01:19.374Z,11.17
2022-08-24T12:04:08.984Z,11.70
2022-08-24T12:06:49.235Z,11.06
2022-08-24T12:09:31.928Z,10.84
2022-08-24T12:12:10.680Z,10.83
2022-08-24T12:14:46.286Z,11.42
2022-08-24T12:17:22.029Z,12.04
2022-08-24T12:19:57.077Z,12.79
2022-08-24T12:22:28.584Z,12.95
2022-08-24T12:25:24.455Z,13.24
2022-08-24T12:28:02.234Z,13.34
2022-08-24T12:30:36.283Z,14.27
2022-08-24T12:33:15.840Z,14.98
2022-08-24T12:35:49.560Z,15.28
2022-08-24T12:38:26.648Z,15.16
2022-08-24T12:41:17.717Z,15.37
2022-08-24T12:43:54.879Z,15.44
2022-08-24T12:46:27.725Z,15.29
2022-08-24T12:49:01.594Z,15.20
2022-08-24T12:51:46.393Z,15.48
2022-08-24T12:54:37.107Z,15.64
2022-08-24T12:57:32.586Z,15.75
2022-08-24T13:00:09.617Z,15.71
2022-08-24T13:02:48.305Z,16.04
2022-08-24T13:05:21.020Z,16.29
2022-08-24T13:07:56.278Z,16.35
2022-08-24T13:10:45.152Z,16.33
2022-08-24T13:13:23.949Z,16.25
2022-08-24T13:16:03.566Z,16.76
2022-08-24T13:19:07.966Z,16.67
2022-08-24T13:21:58.883Z,16.57
2022-08-24T13:25:03.051Z,16.18
2022-08-24T13:28:05.793Z,15.83
2022-08-24T13:31:21.054Z,16.38
2022-08-24T13:33:58.542Z,15.83
2022-08-24T13:36:55.295Z,15.67
2022-08-24T13:40:05.817Z,15.62
2022-08-24T13:43:01.205Z,15.67
2022-08-24T13:45:48.074Z,15.75
2022-08-24T13:48:29.176Z,16.23
2022-08-24T13:51:27.002Z,16.08
2022-08-24T13:54:20.030Z,15.87
2022-08-24T13:57:05.225Z,15.87
2022-08-24T13:59:54.829Z,15.95
2022-08-24T14:02:38.723Z,16.02
2022-08-24T14:05:25.903Z,15.79
2022-08-24T14:08:08.231Z,15.72
2022-08-24T14:10:53.759Z,16.29
2022-08-24T14:13:49.655Z,16.14
2022-08-24T14:17:03.157Z,16.14
2022-08-24T14:19:45.796Z,16.37
2022-08-24T14:22:30.259Z,16.40
2022-08-24T14:25:18.320Z,16.26
2022-08-24T14:27:50.622Z,16.25
2022-08-24T14:30:45.950Z,16.00
2022-08-24T14:33:29.864Z,16.48
2022-08-24T14:36:21.054Z,16.07
2022-08-24T14:39:05.211Z,16.41
2022-08-24T14:42:00.021Z,15.79
2022-08-24T14:44:50.531Z,15.84
2022-08-24T14:47:40.102Z,16.06
2022-08-24T14:50:20.390Z,16.08
2022-08-24T14:53:01.560Z,16.50
2022-08-24T14:55:39.674Z,16.09
2022-08-24T14:58:29.360Z,16.22
2022-08-24T15:01:40.764Z,16.63
2022-08-24T15:04:45.103Z,16.17
2022-08-24T15:07:31.317Z,16.65
2022-08-24T15:10:03.763Z,17.00
2022-08-24T15:12:44.238Z,16.95
2022-08-24T15:15:26.882Z,17.46
2022-08-24T15:18:09.500Z,17.43
2022-08-24T15:20:58.799Z,17.67
2022-08-24T15:23:43.490Z,17.56
2022-08-24T15:26:22.683Z,17.88
2022-08-24T15:28:56.800Z,18.08
2022-08-24T15:31:34.211Z,18.34
2022-08-24T15:34:07.315Z,18.95
2022-08-24T15:36:38.646Z,18.56
2022-08-24T15:39:09.747Z,18.86
2022-08-24T15:41:44.290Z,18.64
2022-08-24T15:44:24.485Z,18.70
2022-08-24T15:47:02.028Z,18.41
2022-08-24T15:49:46.832Z,18.69
2022-08-24T15:52:41.664Z,18.69
2022-08-24T15:55:20.047Z,19.56
2022-08-24T15:57:50.076Z,19.33
2022-08-24T16:00:48.023Z,19.49
2022-08-24T16:03:24.312Z,20.12
2022-08-24T16:05:56.877Z,19.82
2022-08-24T16:08:30.763Z,19.60
2022-08-24T16:11:21.597Z,19.70
2022-08-24T16:13:53.602Z,20.32
2022-08-24T16:16:34.444Z,20.17
2022-08-24T16:19:09.998Z,20.17
2022-08-24T16:21:45.396Z,20.46
2022-08-24T16:24:28.244Z,20.51
2022-08-24T16:27:04.752Z,21.10
2022-08-24T16:29:56.036Z,21.12
2022-08-24T16:32:32.032Z,20.97
2022-08-24T16:35:20.942Z,21.39
2022-08-24T16:37:52.544Z,21.89
2022-08-24T16:40:23.548Z,21.82
2022-08-24T16:42:55.266Z,21.05
2022-08-24T16:45:26.352Z,22.09
2022-08-24T16:48:01.450Z,21.57
2022-08-24T16:50:38.287Z,23.03
2022-08-24T16:53:10.915Z,22.87
2022-08-24T16:55:41.445Z,22.91
2022-08-24T16:58:11.555Z,23.01
2022-08-24T17:00:41.873Z,23.25
2022-08-24T17:03:15.136Z,23.16
2022-08-24T17:05:47.756Z,23.29
2022-08-24T17:08:20.025Z,22.98
2022-08-24T17:10:53.013Z,23.19
2022-08-24T17:16:15.087Z,23.61
2022-08-24T17:18:45.229Z,23.24
2022-08-24T17:21:18.562Z,23.78
2022-08-24T17:23:49.092Z,23.77
2022-08-24T17:26:20.705Z,23.77
2022-08-24T17:28:54.726Z,24.02
2022-08-24T17:31:25.566Z,24.00
2022-08-24T17:34:00.345Z,24.34
2022-08-24T17:36:33.746Z,24.31
2022-08-24T17:39:05.478Z,24.66
2022-08-24T17:41:36.516Z,24.57
2022-08-24T17:44:07.530Z,24.03
2022-08-24T17:46:37.839Z,24.84
2022-08-24T17:49:11.113Z,25.67
2022-08-24T17:51:44.403Z,24.79
2022-08-24T17:54:16.131Z,26.93
2022-08-24T17:56:49.266Z,27.06
2022-08-24T17:59:31.244Z,26.31
2022-08-24T18:02:07.297Z,25.84
2022-08-24T18:04:38.147Z,25.37
2022-08-24T18:07:13.613Z,25.91
2022-08-24T18:09:48.357Z,25.68
2022-08-24T18:12:21.544Z,26.32
2022-08-24T18:14:51.929Z,25.57
2022-08-24T18:17:30.829Z,25.53
2022-08-24T18:20:01.356Z,25.43
2022-08-24T18:22:35.352Z,25.68
2022-08-24T18:25:06.416Z,25.42
2022-08-24T18:27:46.020Z,25.64
2022-08-24T18:30:22.478Z,25.61
2022-08-24T18:32:54.428Z,26.61
2022-08-24T18:35:24.639Z,25.74
2022-08-24T18:37:57.451Z,25.96
2022-08-24T18:40:29.180Z,25.77
2022-08-24T18:43:06.331Z,25.39
2022-08-24T18:45:37.487Z,27.35
2022-08-24T18:48:07.850Z,25.12
2022-08-24T18:50:42.044Z,25.14
2022-08-24T18:53:13.737Z,26.71
2022-08-24T18:55:47.350Z,25.67
2022-08-24T18:58:17.566Z,26.98
2022-08-24T19:00:49.045Z,27.11
2022-08-24T19:03:24.000Z,27.17
2022-08-24T19:05:54.762Z,25.35
2022-08-24T19:08:25.881Z,26.22
2022-08-24T19:10:56.427Z,26.38
2022-08-24T19:13:26.678Z,26.55
2022-08-24T19:15:56.074Z,27.46
2022-08-24T19:18:28.624Z,27.58
2022-08-24T19:21:02.499Z,26.89
2022-08-24T19:23:36.987Z,27.58
2022-08-24T19:26:06.660Z,28.47
2022-08-24T19:28:37.204Z,27.42
2022-08-24T19:31:12.497Z,28.09
2022-08-24T19:33:49.812Z,27.26
2022-08-24T19:36:20.642Z,26.72
2022-08-24T19:38:52.153Z,27.72
2022-08-24T19:41:22.807Z,26.64
2022-08-24T19:44:30.947Z,26.10
2022-08-24T19:47:02.355Z,27.03
2022-08-24T19:49:33.330Z,26.88
2022-08-24T19:52:04.532Z,26.38
2022-08-24T19:54:41.157Z,26.11
2022-08-24T19:57:32.037Z,26.81
2022-08-24T20:00:06.721Z,27.46
2022-08-24T20:02:36.200Z,26.92
2022-08-24T20:05:06.556Z,27.08
2022-08-24T20:07:37.808Z,26.45
2022-08-24T20:10:12.795Z,26.27
2022-08-24T20:12:42.870Z,26.89
2022-08-24T20:15:14.172Z,27.67
2022-08-24T20:17:46.265Z,27.24
2022-08-24T20:20:21.420Z,28.77
2022-08-24T20:22:51.415Z,27.78
2022-08-24T20:25:23.066Z,29.22
2022-08-24T20:28:12.425Z,27.91
2022-08-24T20:30:46.896Z,28.71
2022-08-24T20:33:18.427Z,28.48
2022-08-24T20:35:47.830Z,27.59
2022-08-24T20:38:20.000Z,29.48
2022-08-24T20:40:51.831Z,28.69
2022-08-24T20:43:22.346Z,27.70
2022-08-24T20:45:52.987Z,27.12
2022-08-24T20:48:28.595Z,26.96
2022-08-24T20:50:59.000Z,28.00
2022-08-24T20:53:28.898Z,27.10
2022-08-24T20:56:07.631Z,28.46
2022-08-24T20:58:38.122Z,28.74
2022-08-24T21:01:10.165Z,27.81
2022-08-24T21:03:40.591Z,29.63
2022-08-24T21:06:13.988Z,27.78
2022-08-24T21:08:46.480Z,27.71
2022-08-24T21:11:20.311Z,27.77
2022-08-24T21:13:50.319Z,27.80
2022-08-24T21:16:21.006Z,27.22
2022-08-24T21:18:50.535Z,27.91
2022-08-24T21:21:22.283Z,27.25
2022-08-24T21:23:55.328Z,27.20
2022-08-24T21:26:33.066Z,27.79
2022-08-24T21:29:04.351Z,27.48
2022-08-24T21:31:33.489Z,27.07
2022-08-24T21:34:22.307Z,27.53
2022-08-24T21:36:54.195Z,28.11
2022-08-24T21:39:24.254Z,27.96
2022-08-24T21:41:57.650Z,28.78
2022-08-24T21:44:27.316Z,28.92
2022-08-24T21:46:57.092Z,29.30
2022-08-24T21:49:27.118Z,29.81
2022-08-24T21:51:57.919Z,29.14
2022-08-24T21:54:26.972Z,28.82
2022-08-24T21:56:58.727Z,28.74
2022-08-24T21:59:28.381Z,28.18
2022-08-24T22:02:02.261Z,28.14
2022-08-24T22:04:31.946Z,27.88
2022-08-24T22:07:02.727Z,27.86
2022-08-24T22:09:32.498Z,27.33
2022-08-24T22:12:03.099Z,27.12
2022-08-24T22:14:32.908Z,27.34
2022-08-24T22:17:02.703Z,26.95
2022-08-24T22:19:33.093Z,27.00
2022-08-24T22:22:03.810Z,27.07
2022-08-24T22:24:36.963Z,27.19
2022-08-24T22:27:08.113Z,26.61
2022-08-24T22:29:37.272Z,26.51
2022-08-24T22:32:07.132Z,26.82
2022-08-24T22:34:37.682Z,26.73
2022-08-24T22:37:07.294Z,26.53
2022-08-24T22:39:36.921Z,26.90
2022-08-24T22:42:09.220Z,26.95
2022-08-24T22:44:38.377Z,27.16
2022-08-24T22:47:13.129Z,27.30
2022-08-24T22:49:44.826Z,27.34
2022-08-24T22:52:16.115Z,27.21
2022-08-24T22:54:45.112Z,26.97
2022-08-24T22:57:19.800Z,26.79
2022-08-24T22:59:49.172Z,27.11
2022-08-24T23:02:20.986Z,27.22
2022-08-24T23:04:52.608Z,27.50
2022-08-24T23:07:22.709Z,27.34
2022-08-24T23:09:52.308Z,27.39
2022-08-24T23:12:25.002Z,27.72
2022-08-24T23:14:55.039Z,27.51
2022-08-24T23:17:24.701Z,27.84
2022-08-24T23:20:05.537Z,27.80
2022-08-24T23:22:38.179Z,27.81
2022-08-24T23:25:11.740Z,27.79
2022-08-24T23:27:46.553Z,27.47
2022-08-24T23:30:18.588Z,27.63
2022-08-24T23:32:47.921Z,27.91
2022-08-24T23:35:16.717Z,27.66
2022-08-24T23:37:45.805Z,27.62
2022-08-24T23:40:16.264Z,27.76
2022-08-24T23:42:47.020Z,27.54
2022-08-24T23:45:16.227Z,27.37
2022-08-24T23:47:45.614Z,27.56
2022-08-24T23:50:15.065Z,27.39
2022-08-24T23:52:44.444Z,27.20
2022-08-24T23:55:20.315Z,27.42
2022-08-24T23:57:54.433Z,27.61
